createdAt,value
2022-11-17T00:08:37.454Z,11.35
2022-11-17T00:48:37.477Z,10.81
2022-11-17T01:08:37.378Z,10.75
2022-11-17T01:28:37.374Z,10.88
2022-11-17T01:48:37.310Z,10.55
2022-11-17T02:08:37.281Z,10.2
2022-11-17T02:28:37.251Z,10.19
2022-11-17T02:48:37.260Z,10.28
2022-11-17T03:08:37.197Z,10.22
2022-11-17T03:28:37.172Z,10.15
2022-11-17T03:48:37.150Z,10.2
2022-11-17T04:08:37.107Z,10.15
2022-11-17T04:28:37.120Z,10.04
2022-11-17T04:48:37.060Z,10.25
2022-11-17T05:08:37.020Z,10.33
2022-11-17T05:28:36.994Z,10.36
2022-11-17T05:48:36.996Z,10.36
2022-11-17T06:28:36.934Z,10.12
2022-11-17T06:48:37.206Z,10.15
2022-11-17T07:08:37.291Z,10.4
2022-11-17T07:28:37.227Z,10.48
2022-11-17T07:48:37.095Z,10.55
2022-11-17T08:08:37.087Z,10.69
2022-11-17T08:28:37.104Z,10.58
2022-11-17T08:48:36.912Z,10.35
2022-11-17T09:08:45.877Z,10.27
2022-11-17T09:28:37.270Z,10.35
2022-11-17T09:48:40.567Z,10.64
2022-11-17T10:08:36.593Z,10.94
2022-11-17T10:28:36.590Z,11.22
2022-11-17T10:48:36.588Z,11.6
2022-11-17T11:08:36.516Z,11.85
2022-11-17T11:28:38.994Z,12.23
2022-11-17T11:48:36.440Z,12.4
2022-11-17T12:28:36.393Z,12.35
2022-11-17T12:48:36.408Z,12.3
2022-11-17T13:08:36.332Z,12.25
2022-11-17T13:28:36.292Z,12.06
2022-11-17T14:08:36.242Z,11.71
2022-11-17T14:28:36.192Z,11.65
2022-11-17T14:48:36.179Z,11.66
2022-11-17T15:08:36.146Z,11.6
2022-11-17T15:28:36.106Z,11.39
2022-11-17T15:48:36.099Z,11.3
2022-11-17T16:08:36.068Z,11.36
2022-11-17T16:28:36.034Z,11.31
2022-11-17T16:48:35.996Z,11.35
2022-11-17T17:08:35.956Z,11.14
2022-11-17T17:28:35.948Z,11
2022-11-17T17:48:35.904Z,10.67
2022-11-17T18:08:35.877Z,10.56
2022-11-17T18:28:35.841Z,10.32
2022-11-17T18:48:35.824Z,10.05
2022-11-17T19:08:35.806Z,9.9
2022-11-17T19:48:35.746Z,9.74
2022-11-17T20:08:35.709Z,9.68
2022-11-17T20:28:35.666Z,9.74
2022-11-17T21:28:35.596Z,9.34
2022-11-17T21:48:35.574Z,9.14
2022-11-17T22:08:35.541Z,8.83
2022-11-17T22:28:35.516Z,8.77
2022-11-17T22:48:35.490Z,8.75
2022-11-17T23:08:35.452Z,8.71
2022-11-17T23:28:35.459Z,8.31
2022-11-17T23:48:35.406Z,8.54
